sensor_id;sensor_type;location;lat;lon;timestamp;P1;P2;P0
36523;PMS5003;66329;46.796;9.824;2023-02-17T00:01:25;6;4;
36523;PMS5003;66329;46.796;9.824;2023-02-17T00:03:53;5;5;
36523;PMS5003;66329;46.796;9.824;2023-02-17T00:06:21;3;3;
36523;PMS5003;66329;46.796;9.824;2023-02-17T00:08:50;6;6;
36523;PMS5003;66329;46.796;9.824;2023-02-17T00:11:17;3;3;
36523;PMS5003;66329;46.796;9.824;2023-02-17T00:13:45;5;5;
36523;PMS5003;66329;46.796;9.824;2023-02-17T00:16:15;4;4;
36523;PMS5003;66329;46.796;9.824;2023-02-17T00:18:44;4;4;
36523;PMS5003;66329;46.796;9.824;2023-02-17T00:21:13;3;3;
36523;PMS5003;66329;46.796;9.824;2023-02-17T00:23:42;4;3;
36523;PMS5003;66329;46.796;9.824;2023-02-17T00:26:10;4;4;
36523;PMS5003;66329;46.796;9.824;2023-02-17T00:28:39;3;3;
36523;PMS5003;66329;46.796;9.824;2023-02-17T00:31:07;4;4;
36523;PMS5003;66329;46.796;9.824;2023-02-17T00:33:36;5;4;
36523;PMS5003;66329;46.796;9.824;2023-02-17T00:36:04;3;3;
36523;PMS5003;66329;46.796;9.824;2023-02-17T00:38:32;4;4;
36523;PMS5003;66329;46.796;9.824;2023-02-17T00:41:00;4;4;
36523;PMS5003;66329;46.796;9.824;2023-02-17T00:43:27;8;5;
36523;PMS5003;66329;46.796;9.824;2023-02-17T00:45:54;3;3;
36523;PMS5003;66329;46.796;9.824;2023-02-17T00:48:22;4;4;
36523;PMS5003;66329;46.796;9.824;2023-02-17T00:50:50;4;4;
36523;PMS5003;66329;46.796;9.824;2023-02-17T00:53:17;5;5;
36523;PMS5003;66329;46.796;9.824;2023-02-17T00:55:44;4;4;
36523;PMS5003;66329;46.796;9.824;2023-02-17T00:58:11;4;4;
36523;PMS5003;66329;46.796;9.824;2023-02-17T01:00:40;4;2;
36523;PMS5003;66329;46.796;9.824;2023-02-17T01:03:07;3;3;
36523;PMS5003;66329;46.796;9.824;2023-02-17T01:05:39;3;3;
36523;PMS5003;66329;46.796;9.824;2023-02-17T01:08:08;4;4;
36523;PMS5003;66329;46.796;9.824;2023-02-17T01:10:36;3;3;
36523;PMS5003;66329;46.796;9.824;2023-02-17T01:13:05;5;5;
36523;PMS5003;66329;46.796;9.824;2023-02-17T01:15:36;5;5;
36523;PMS5003;66329;46.796;9.824;2023-02-17T01:18:05;4;4;
36523;PMS5003;66329;46.796;9.824;2023-02-17T01:20:35;5;3;
36523;PMS5003;66329;46.796;9.824;2023-02-17T01:23:04;5;4;
36523;PMS5003;66329;46.796;9.824;2023-02-17T01:25:35;4;4;
36523;PMS5003;66329;46.796;9.824;2023-02-17T01:28:02;4;4;
36523;PMS5003;66329;46.796;9.824;2023-02-17T01:30:30;3;3;
36523;PMS5003;66329;46.796;9.824;2023-02-17T01:32:57;4;4;
36523;PMS5003;66329;46.796;9.824;2023-02-17T01:35:25;3;3;
36523;PMS5003;66329;46.796;9.824;2023-02-17T01:37:52;3;3;
36523;PMS5003;66329;46.796;9.824;2023-02-17T01:40:21;3;3;
36523;PMS5003;66329;46.796;9.824;2023-02-17T01:42:49;4;3;
36523;PMS5003;66329;46.796;9.824;2023-02-17T01:45:38;4;4;
36523;PMS5003;66329;46.796;9.824;2023-02-17T01:48:12;2;2;
36523;PMS5003;66329;46.796;9.824;2023-02-17T01:50:44;4;4;
36523;PMS5003;66329;46.796;9.824;2023-02-17T01:53:17;3;3;
36523;PMS5003;66329;46.796;9.824;2023-02-17T01:55:48;3;3;
36523;PMS5003;66329;46.796;9.824;2023-02-17T01:58:18;3;3;
36523;PMS5003;66329;46.796;9.824;2023-02-17T02:00:55;4;4;
36523;PMS5003;66329;46.796;9.824;2023-02-17T02:03:27;3;3;
36523;PMS5003;66329;46.796;9.824;2023-02-17T02:06:02;4;4;
36523;PMS5003;66329;46.796;9.824;2023-02-17T02:08:34;3;3;
36523;PMS5003;66329;46.796;9.824;2023-02-17T02:11:05;4;4;
36523;PMS5003;66329;46.796;9.824;2023-02-17T02:13:33;5;3;
36523;PMS5003;66329;46.796;9.824;2023-02-17T02:16:03;4;4;
36523;PMS5003;66329;46.796;9.824;2023-02-17T02:18:42;3;3;
36523;PMS5003;66329;46.796;9.824;2023-02-17T02:21:40;3;3;
36523;PMS5003;66329;46.796;9.824;2023-02-17T02:24:27;4;2;
36523;PMS5003;66329;46.796;9.824;2023-02-17T02:27:10;1;1;
36523;PMS5003;66329;46.796;9.824;2023-02-17T02:29:57;4;4;
36523;PMS5003;66329;46.796;9.824;2023-02-17T02:32:37;3;3;
36523;PMS5003;66329;46.796;9.824;2023-02-17T02:35:14;2;2;
36523;PMS5003;66329;46.796;9.824;2023-02-17T02:37:48;6;5;
36523;PMS5003;66329;46.796;9.824;2023-02-17T02:40:19;4;4;
36523;PMS5003;66329;46.796;9.824;2023-02-17T02:42:51;3;3;
36523;PMS5003;66329;46.796;9.824;2023-02-17T02:45:20;3;3;
36523;PMS5003;66329;46.796;9.824;2023-02-17T02:47:49;4;4;
36523;PMS5003;66329;46.796;9.824;2023-02-17T02:50:19;3;3;
36523;PMS5003;66329;46.796;9.824;2023-02-17T02:52:57;2;2;
36523;PMS5003;66329;46.796;9.824;2023-02-17T02:55:38;2;2;
36523;PMS5003;66329;46.796;9.824;2023-02-17T02:58:15;3;3;
36523;PMS5003;66329;46.796;9.824;2023-02-17T03:00:48;3;3;
36523;PMS5003;66329;46.796;9.824;2023-02-17T03:03:23;1;1;
36523;PMS5003;66329;46.796;9.824;2023-02-17T03:06:02;3;3;
36523;PMS5003;66329;46.796;9.824;2023-02-17T03:08:37;3;3;
36523;PMS5003;66329;46.796;9.824;2023-02-17T03:11:09;3;3;
36523;PMS5003;66329;46.796;9.824;2023-02-17T03:13:38;4;4;
36523;PMS5003;66329;46.796;9.824;2023-02-17T03:16:05;3;3;
36523;PMS5003;66329;46.796;9.824;2023-02-17T03:18:34;3;3;
36523;PMS5003;66329;46.796;9.824;2023-02-17T03:21:03;3;3;
36523;PMS5003;66329;46.796;9.824;2023-02-17T03:23:37;4;2;
36523;PMS5003;66329;46.796;9.824;2023-02-17T03:26:05;2;2;
36523;PMS5003;66329;46.796;9.824;2023-02-17T03:28:32;4;4;
36523;PMS5003;66329;46.796;9.824;2023-02-17T03:30:59;3;3;
36523;PMS5003;66329;46.796;9.824;2023-02-17T03:33:27;4;4;
36523;PMS5003;66329;46.796;9.824;2023-02-17T03:35:54;2;2;
36523;PMS5003;66329;46.796;9.824;2023-02-17T03:38:21;1;1;
36523;PMS5003;66329;46.796;9.824;2023-02-17T03:40:49;3;3;
36523;PMS5003;66329;46.796;9.824;2023-02-17T03:43:16;3;3;
36523;PMS5003;66329;46.796;9.824;2023-02-17T03:45:43;3;3;
36523;PMS5003;66329;46.796;9.824;2023-02-17T03:48:11;5;3;
36523;PMS5003;66329;46.796;9.824;2023-02-17T03:50:39;1;1;
36523;PMS5003;66329;46.796;9.824;2023-02-17T03:53:07;2;2;
36523;PMS5003;66329;46.796;9.824;2023-02-17T03:55:35;3;3;
36523;PMS5003;66329;46.796;9.824;2023-02-17T03:58:03;3;3;
36523;PMS5003;66329;46.796;9.824;2023-02-17T04:00:30;2;2;
36523;PMS5003;66329;46.796;9.824;2023-02-17T04:02:57;3;3;
36523;PMS5003;66329;46.796;9.824;2023-02-17T04:05:25;3;3;
36523;PMS5003;66329;46.796;9.824;2023-02-17T04:07:52;3;3;
36523;PMS5003;66329;46.796;9.824;2023-02-17T04:10:19;2;2;
36523;PMS5003;66329;46.796;9.824;2023-02-17T04:12:46;2;2;
36523;PMS5003;66329;46.796;9.824;2023-02-17T04:15:13;3;3;
36523;PMS5003;66329;46.796;9.824;2023-02-17T04:17:41;2;2;
36523;PMS5003;66329;46.796;9.824;2023-02-17T04:20:08;4;4;
36523;PMS5003;66329;46.796;9.824;2023-02-17T04:22:36;3;3;
36523;PMS5003;66329;46.796;9.824;2023-02-17T04:25:03;1;1;
36523;PMS5003;66329;46.796;9.824;2023-02-17T04:27:31;4;2;
36523;PMS5003;66329;46.796;9.824;2023-02-17T04:29:58;1;1;
36523;PMS5003;66329;46.796;9.824;2023-02-17T04:32:25;1;1;
36523;PMS5003;66329;46.796;9.824;2023-02-17T04:34:52;1;1;
36523;PMS5003;66329;46.796;9.824;2023-02-17T04:37:19;1;1;
36523;PMS5003;66329;46.796;9.824;2023-02-17T04:39:47;2;2;
36523;PMS5003;66329;46.796;9.824;2023-02-17T04:42:14;1;1;
36523;PMS5003;66329;46.796;9.824;2023-02-17T04:44:41;3;3;
36523;PMS5003;66329;46.796;9.824;2023-02-17T04:47:08;1;1;
36523;PMS5003;66329;46.796;9.824;2023-02-17T04:49:35;3;3;
36523;PMS5003;66329;46.796;9.824;2023-02-17T04:52:02;2;2;
36523;PMS5003;66329;46.796;9.824;2023-02-17T04:54:30;3;3;
36523;PMS5003;66329;46.796;9.824;2023-02-17T04:56:57;2;2;
36523;PMS5003;66329;46.796;9.824;2023-02-17T04:59:24;3;3;
36523;PMS5003;66329;46.796;9.824;2023-02-17T05:01:51;3;3;
36523;PMS5003;66329;46.796;9.824;2023-02-17T05:04:18;1;1;
36523;PMS5003;66329;46.796;9.824;2023-02-17T05:06:45;2;2;
36523;PMS5003;66329;46.796;9.824;2023-02-17T05:09:12;3;3;
36523;PMS5003;66329;46.796;9.824;2023-02-17T05:11:40;1;1;
36523;PMS5003;66329;46.796;9.824;2023-02-17T05:14:07;2;2;
36523;PMS5003;66329;46.796;9.824;2023-02-17T05:16:34;3;3;
36523;PMS5003;66329;46.796;9.824;2023-02-17T05:19:01;3;2;
36523;PMS5003;66329;46.796;9.824;2023-02-17T05:21:28;3;3;
36523;PMS5003;66329;46.796;9.824;2023-02-17T05:23:55;2;2;
36523;PMS5003;66329;46.796;9.824;2023-02-17T05:26:22;2;2;
36523;PMS5003;66329;46.796;9.824;2023-02-17T05:28:49;3;3;
36523;PMS5003;66329;46.796;9.824;2023-02-17T05:31:17;3;3;
36523;PMS5003;66329;46.796;9.824;2023-02-17T05:33:44;2;2;
36523;PMS5003;66329;46.796;9.824;2023-02-17T05:36:11;2;2;
36523;PMS5003;66329;46.796;9.824;2023-02-17T05:38:39;2;2;
36523;PMS5003;66329;46.796;9.824;2023-02-17T05:41:08;2;2;
36523;PMS5003;66329;46.796;9.824;2023-02-17T05:43:35;2;2;
36523;PMS5003;66329;46.796;9.824;2023-02-17T05:46:02;2;2;
36523;PMS5003;66329;46.796;9.824;2023-02-17T05:48:30;1;1;
36523;PMS5003;66329;46.796;9.824;2023-02-17T05:50:58;2;2;
36523;PMS5003;66329;46.796;9.824;2023-02-17T05:53:25;3;3;
36523;PMS5003;66329;46.796;9.824;2023-02-17T05:55:53;1;1;
36523;PMS5003;66329;46.796;9.824;2023-02-17T05:58:21;2;2;
36523;PMS5003;66329;46.796;9.824;2023-02-17T06:00:48;2;2;
36523;PMS5003;66329;46.796;9.824;2023-02-17T06:03:15;1;1;
36523;PMS5003;66329;46.796;9.824;2023-02-17T06:05:43;2;2;
36523;PMS5003;66329;46.796;9.824;2023-02-17T06:08:11;0;0;
36523;PMS5003;66329;46.796;9.824;2023-02-17T06:10:40;0;0;
36523;PMS5003;66329;46.796;9.824;2023-02-17T06:13:08;3;3;
36523;PMS5003;66329;46.796;9.824;2023-02-17T06:15:35;1;1;
36523;PMS5003;66329;46.796;9.824;2023-02-17T06:18:35;2;2;
36523;PMS5003;66329;46.796;9.824;2023-02-17T06:21:22;0;0;
36523;PMS5003;66329;46.796;9.824;2023-02-17T06:23:50;2;2;
36523;PMS5003;66329;46.796;9.824;2023-02-17T06:26:18;1;1;
36523;PMS5003;66329;46.796;9.824;2023-02-17T06:28:46;2;2;
36523;PMS5003;66329;46.796;9.824;2023-02-17T06:31:14;3;3;
36523;PMS5003;66329;46.796;9.824;2023-02-17T06:33:46;2;2;
36523;PMS5003;66329;46.796;9.824;2023-02-17T06:36:14;3;3;
36523;PMS5003;66329;46.796;9.824;2023-02-17T06:38:41;6;4;
36523;PMS5003;66329;46.796;9.824;2023-02-17T06:41:08;3;3;
36523;PMS5003;66329;46.796;9.824;2023-02-17T06:43:35;1;1;
36523;PMS5003;66329;46.796;9.824;2023-02-17T06:46:03;0;0;
36523;PMS5003;66329;46.796;9.824;2023-02-17T06:48:33;3;3;
36523;PMS5003;66329;46.796;9.824;2023-02-17T06:51:01;1;1;
36523;PMS5003;66329;46.796;9.824;2023-02-17T06:53:28;3;3;
36523;PMS5003;66329;46.796;9.824;2023-02-17T06:55:55;3;3;
36523;PMS5003;66329;46.796;9.824;2023-02-17T06:58:23;1;1;
36523;PMS5003;66329;46.796;9.824;2023-02-17T07:00:50;2;2;
36523;PMS5003;66329;46.796;9.824;2023-02-17T07:03:17;2;2;
36523;PMS5003;66329;46.796;9.824;2023-02-17T07:05:44;3;3;
36523;PMS5003;66329;46.796;9.824;2023-02-17T07:08:11;3;3;
36523;PMS5003;66329;46.796;9.824;2023-02-17T07:10:39;4;4;
36523;PMS5003;66329;46.796;9.824;2023-02-17T07:13:08;2;2;
36523;PMS5003;66329;46.796;9.824;2023-02-17T07:15:35;3;3;
36523;PMS5003;66329;46.796;9.824;2023-02-17T07:15:44;2;2;
36523;PMS5003;66329;46.796;9.824;2023-02-17T07:18:11;4;4;
36523;PMS5003;66329;46.796;9.824;2023-02-17T07:20:38;6;4;
36523;PMS5003;66329;46.796;9.824;2023-02-17T07:20:46;5;3;
36523;PMS5003;66329;46.796;9.824;2023-02-17T07:23:13;3;3;
36523;PMS5003;66329;46.796;9.824;2023-02-17T07:25:40;3;3;
36523;PMS5003;66329;46.796;9.824;2023-02-17T07:28:07;2;2;
36523;PMS5003;66329;46.796;9.824;2023-02-17T07:30:36;3;3;
36523;PMS5003;66329;46.796;9.824;2023-02-17T07:33:03;4;4;
36523;PMS5003;66329;46.796;9.824;2023-02-17T07:35:31;5;5;
36523;PMS5003;66329;46.796;9.824;2023-02-17T07:38:00;3;3;
36523;PMS5003;66329;46.796;9.824;2023-02-17T07:40:27;5;5;
36523;PMS5003;66329;46.796;9.824;2023-02-17T07:42:55;3;3;
36523;PMS5003;66329;46.796;9.824;2023-02-17T07:45:23;5;5;
36523;PMS5003;66329;46.796;9.824;2023-02-17T07:47:50;5;5;
36523;PMS5003;66329;46.796;9.824;2023-02-17T07:50:17;4;4;
36523;PMS5003;66329;46.796;9.824;2023-02-17T07:52:44;4;4;
36523;PMS5003;66329;46.796;9.824;2023-02-17T07:55:12;4;4;
36523;PMS5003;66329;46.796;9.824;2023-02-17T07:57:41;1;1;
36523;PMS5003;66329;46.796;9.824;2023-02-17T08:00:08;5;5;
36523;PMS5003;66329;46.796;9.824;2023-02-17T08:02:37;3;3;
36523;PMS5003;66329;46.796;9.824;2023-02-17T08:05:05;4;4;
36523;PMS5003;66329;46.796;9.824;2023-02-17T08:07:32;4;4;
36523;PMS5003;66329;46.796;9.824;2023-02-17T08:10:00;4;4;
36523;PMS5003;66329;46.796;9.824;2023-02-17T08:12:27;4;4;
36523;PMS5003;66329;46.796;9.824;2023-02-17T08:14:55;5;5;
36523;PMS5003;66329;46.796;9.824;2023-02-17T08:17:23;5;4;
36523;PMS5003;66329;46.796;9.824;2023-02-17T08:19:50;6;6;
36523;PMS5003;66329;46.796;9.824;2023-02-17T08:22:17;6;5;
36523;PMS5003;66329;46.796;9.824;2023-02-17T08:24:44;8;7;
36523;PMS5003;66329;46.796;9.824;2023-02-17T08:27:12;6;6;
36523;PMS5003;66329;46.796;9.824;2023-02-17T08:29:40;4;4;
36523;PMS5003;66329;46.796;9.824;2023-02-17T08:32:08;5;5;
36523;PMS5003;66329;46.796;9.824;2023-02-17T08:34:36;5;5;
36523;PMS5003;66329;46.796;9.824;2023-02-17T08:37:04;7;6;
36523;PMS5003;66329;46.796;9.824;2023-02-17T08:39:33;4;4;
36523;PMS5003;66329;46.796;9.824;2023-02-17T08:42:01;5;5;
36523;PMS5003;66329;46.796;9.824;2023-02-17T08:44:30;5;5;
36523;PMS5003;66329;46.796;9.824;2023-02-17T08:46:59;5;5;
36523;PMS5003;66329;46.796;9.824;2023-02-17T08:49:27;6;6;
36523;PMS5003;66329;46.796;9.824;2023-02-17T08:51:54;7;5;
36523;PMS5003;66329;46.796;9.824;2023-02-17T08:54:21;5;5;
36523;PMS5003;66329;46.796;9.824;2023-02-17T08:56:49;6;6;
36523;PMS5003;66329;46.796;9.824;2023-02-17T08:59:16;6;6;
36523;PMS5003;66329;46.796;9.824;2023-02-17T09:01:43;7;7;
36523;PMS5003;66329;46.796;9.824;2023-02-17T09:04:11;7;7;
36523;PMS5003;66329;46.796;9.824;2023-02-17T09:06:40;7;7;
36523;PMS5003;66329;46.796;9.824;2023-02-17T09:09:10;5;5;
36523;PMS5003;66329;46.796;9.824;2023-02-17T09:11:39;7;6;
36523;PMS5003;66329;46.796;9.824;2023-02-17T09:14:07;5;5;
36523;PMS5003;66329;46.796;9.824;2023-02-17T09:16:34;10;8;
36523;PMS5003;66329;46.796;9.824;2023-02-17T09:19:03;6;6;
36523;PMS5003;66329;46.796;9.824;2023-02-17T09:21:30;8;6;
36523;PMS5003;66329;46.796;9.824;2023-02-17T09:23:58;8;7;
36523;PMS5003;66329;46.796;9.824;2023-02-17T09:26:25;6;5;
36523;PMS5003;66329;46.796;9.824;2023-02-17T09:28:52;6;4;
36523;PMS5003;66329;46.796;9.824;2023-02-17T09:31:20;4;4;
36523;PMS5003;66329;46.796;9.824;2023-02-17T09:33:50;5;5;
36523;PMS5003;66329;46.796;9.824;2023-02-17T09:36:19;6;6;
36523;PMS5003;66329;46.796;9.824;2023-02-17T09:38:48;6;6;
36523;PMS5003;66329;46.796;9.824;2023-02-17T09:41:17;5;5;
36523;PMS5003;66329;46.796;9.824;2023-02-17T09:43:48;5;4;
36523;PMS5003;66329;46.796;9.824;2023-02-17T09:46:17;4;4;
36523;PMS5003;66329;46.796;9.824;2023-02-17T09:48:55;5;5;
36523;PMS5003;66329;46.796;9.824;2023-02-17T09:51:26;4;4;
36523;PMS5003;66329;46.796;9.824;2023-02-17T09:54:02;4;4;
36523;PMS5003;66329;46.796;9.824;2023-02-17T09:56:34;7;6;
36523;PMS5003;66329;46.796;9.824;2023-02-17T09:59:07;6;5;
36523;PMS5003;66329;46.796;9.824;2023-02-17T10:01:45;3;3;
36523;PMS5003;66329;46.796;9.824;2023-02-17T10:04:15;4;4;
36523;PMS5003;66329;46.796;9.824;2023-02-17T10:06:48;3;3;
36523;PMS5003;66329;46.796;9.824;2023-02-17T10:09:21;4;4;
36523;PMS5003;66329;46.796;9.824;2023-02-17T10:11:54;4;4;
36523;PMS5003;66329;46.796;9.824;2023-02-17T10:14:33;5;5;
36523;PMS5003;66329;46.796;9.824;2023-02-17T10:17:07;5;5;
36523;PMS5003;66329;46.796;9.824;2023-02-17T10:19:43;5;5;
36523;PMS5003;66329;46.796;9.824;2023-02-17T10:22:19;5;5;
36523;PMS5003;66329;46.796;9.824;2023-02-17T10:24:48;5;5;
36523;PMS5003;66329;46.796;9.824;2023-02-17T10:27:19;5;5;
36523;PMS5003;66329;46.796;9.824;2023-02-17T10:29:59;3;3;
36523;PMS5003;66329;46.796;9.824;2023-02-17T10:32:44;5;5;
36523;PMS5003;66329;46.796;9.824;2023-02-17T10:35:20;3;3;
36523;PMS5003;66329;46.796;9.824;2023-02-17T10:37:53;4;2;
36523;PMS5003;66329;46.796;9.824;2023-02-17T10:40:31;3;3;
36523;PMS5003;66329;46.796;9.824;2023-02-17T10:42:59;5;4;
36523;PMS5003;66329;46.796;9.824;2023-02-17T10:45:29;4;4;
36523;PMS5003;66329;46.796;9.824;2023-02-17T10:48:00;2;2;
36523;PMS5003;66329;46.796;9.824;2023-02-17T10:50:32;5;5;
36523;PMS5003;66329;46.796;9.824;2023-02-17T10:53:03;3;3;
36523;PMS5003;66329;46.796;9.824;2023-02-17T10:55:40;5;5;
36523;PMS5003;66329;46.796;9.824;2023-02-17T10:58:16;4;4;
36523;PMS5003;66329;46.796;9.824;2023-02-17T11:00:48;3;3;
36523;PMS5003;66329;46.796;9.824;2023-02-17T11:03:20;4;4;
36523;PMS5003;66329;46.796;9.824;2023-02-17T11:05:51;4;4;
36523;PMS5003;66329;46.796;9.824;2023-02-17T11:08:24;3;3;
36523;PMS5003;66329;46.796;9.824;2023-02-17T11:10:58;3;3;
36523;PMS5003;66329;46.796;9.824;2023-02-17T11:13:29;3;2;
36523;PMS5003;66329;46.796;9.824;2023-02-17T11:16:00;3;3;
36523;PMS5003;66329;46.796;9.824;2023-02-17T11:18:30;6;4;
36523;PMS5003;66329;46.796;9.824;2023-02-17T11:21:02;4;3;
36523;PMS5003;66329;46.796;9.824;2023-02-17T11:23:32;3;3;
36523;PMS5003;66329;46.796;9.824;2023-02-17T11:26:02;3;3;
36523;PMS5003;66329;46.796;9.824;2023-02-17T11:28:36;1;1;
36523;PMS5003;66329;46.796;9.824;2023-02-17T11:31:03;3;3;
36523;PMS5003;66329;46.796;9.824;2023-02-17T11:33:32;2;2;
36523;PMS5003;66329;46.796;9.824;2023-02-17T11:36:01;3;3;
36523;PMS5003;66329;46.796;9.824;2023-02-17T11:38:32;1;1;
36523;PMS5003;66329;46.796;9.824;2023-02-17T11:41:07;1;1;
36523;PMS5003;66329;46.796;9.824;2023-02-17T11:43:35;3;3;
36523;PMS5003;66329;46.796;9.824;2023-02-17T11:46:14;2;2;
36523;PMS5003;66329;46.796;9.824;2023-02-17T11:48:56;3;3;
36523;PMS5003;66329;46.796;9.824;2023-02-17T11:51:35;2;2;
36523;PMS5003;66329;46.796;9.824;2023-02-17T11:54:16;3;3;
36523;PMS5003;66329;46.796;9.824;2023-02-17T11:56:54;1;1;
36523;PMS5003;66329;46.796;9.824;2023-02-17T11:59:33;0;0;
36523;PMS5003;66329;46.796;9.824;2023-02-17T12:02:12;1;1;
36523;PMS5003;66329;46.796;9.824;2023-02-17T12:04:47;3;3;
36523;PMS5003;66329;46.796;9.824;2023-02-17T12:07:32;1;0;
36523;PMS5003;66329;46.796;9.824;2023-02-17T12:10:09;2;2;
36523;PMS5003;66329;46.796;9.824;2023-02-17T12:13:30;1;1;
36523;PMS5003;66329;46.796;9.824;2023-02-17T12:16:12;2;2;
36523;PMS5003;66329;46.796;9.824;2023-02-17T12:18:49;1;1;
36523;PMS5003;66329;46.796;9.824;2023-02-17T12:21:29;3;2;
36523;PMS5003;66329;46.796;9.824;2023-02-17T12:24:12;2;2;
36523;PMS5003;66329;46.796;9.824;2023-02-17T12:27:05;1;1;
36523;PMS5003;66329;46.796;9.824;2023-02-17T12:29:50;2;2;
36523;PMS5003;66329;46.796;9.824;2023-02-17T12:32:32;1;1;
36523;PMS5003;66329;46.796;9.824;2023-02-17T12:35:13;1;1;
36523;PMS5003;66329;46.796;9.824;2023-02-17T12:37:46;2;1;
36523;PMS5003;66329;46.796;9.824;2023-02-17T12:40:24;2;2;
36523;PMS5003;66329;46.796;9.824;2023-02-17T12:43:00;1;1;
36523;PMS5003;66329;46.796;9.824;2023-02-17T12:45:36;2;2;
36523;PMS5003;66329;46.796;9.824;2023-02-17T12:48:09;2;2;
36523;PMS5003;66329;46.796;9.824;2023-02-17T12:50:45;1;1;
36523;PMS5003;66329;46.796;9.824;2023-02-17T12:53:20;1;1;
36523;PMS5003;66329;46.796;9.824;2023-02-17T12:55:54;1;1;
36523;PMS5003;66329;46.796;9.824;2023-02-17T12:58:27;2;1;
36523;PMS5003;66329;46.796;9.824;2023-02-17T13:00:57;2;2;
36523;PMS5003;66329;46.796;9.824;2023-02-17T13:03:30;1;1;
36523;PMS5003;66329;46.796;9.824;2023-02-17T13:06:01;0;0;
36523;PMS5003;66329;46.796;9.824;2023-02-17T13:08:37;2;2;
36523;PMS5003;66329;46.796;9.824;2023-02-17T13:11:12;2;2;
36523;PMS5003;66329;46.796;9.824;2023-02-17T13:13:52;1;1;
36523;PMS5003;66329;46.796;9.824;2023-02-17T13:16:21;3;3;
36523;PMS5003;66329;46.796;9.824;2023-02-17T13:18:50;1;1;
36523;PMS5003;66329;46.796;9.824;2023-02-17T13:21:26;1;1;
36523;PMS5003;66329;46.796;9.824;2023-02-17T13:23:59;0;0;
36523;PMS5003;66329;46.796;9.824;2023-02-17T13:26:29;2;2;
36523;PMS5003;66329;46.796;9.824;2023-02-17T13:29:19;0;0;
36523;PMS5003;66329;46.796;9.824;2023-02-17T13:32:00;3;3;
36523;PMS5003;66329;46.796;9.824;2023-02-17T13:34:32;2;2;
36523;PMS5003;66329;46.796;9.824;2023-02-17T13:37:13;3;3;
36523;PMS5003;66329;46.796;9.824;2023-02-17T13:39:43;1;1;
36523;PMS5003;66329;46.796;9.824;2023-02-17T13:42:44;2;2;
36523;PMS5003;66329;46.796;9.824;2023-02-17T13:45:16;1;1;
36523;PMS5003;66329;46.796;9.824;2023-02-17T13:47:48;2;1;
36523;PMS5003;66329;46.796;9.824;2023-02-17T13:50:32;2;1;
36523;PMS5003;66329;46.796;9.824;2023-02-17T13:53:02;1;1;
36523;PMS5003;66329;46.796;9.824;2023-02-17T13:55:46;1;1;
36523;PMS5003;66329;46.796;9.824;2023-02-17T13:58:14;4;3;
36523;PMS5003;66329;46.796;9.824;2023-02-17T14:00:47;1;1;
36523;PMS5003;66329;46.796;9.824;2023-02-17T14:03:17;2;2;
36523;PMS5003;66329;46.796;9.824;2023-02-17T14:05:48;1;1;
36523;PMS5003;66329;46.796;9.824;2023-02-17T14:08:17;2;2;
36523;PMS5003;66329;46.796;9.824;2023-02-17T14:10:48;4;3;
36523;PMS5003;66329;46.796;9.824;2023-02-17T14:13:16;1;1;
36523;PMS5003;66329;46.796;9.824;2023-02-17T14:15:52;5;4;
36523;PMS5003;66329;46.796;9.824;2023-02-17T14:18:30;2;2;
36523;PMS5003;66329;46.796;9.824;2023-02-17T14:21:02;2;2;
36523;PMS5003;66329;46.796;9.824;2023-02-17T14:23:45;0;0;
36523;PMS5003;66329;46.796;9.824;2023-02-17T14:26:21;1;1;
36523;PMS5003;66329;46.796;9.824;2023-02-17T14:29:02;1;1;
36523;PMS5003;66329;46.796;9.824;2023-02-17T14:31:36;1;1;
36523;PMS5003;66329;46.796;9.824;2023-02-17T14:34:04;2;2;
36523;PMS5003;66329;46.796;9.824;2023-02-17T14:36:33;3;3;
36523;PMS5003;66329;46.796;9.824;2023-02-17T14:39:02;1;1;
36523;PMS5003;66329;46.796;9.824;2023-02-17T14:41:32;1;1;
36523;PMS5003;66329;46.796;9.824;2023-02-17T14:44:00;1;1;
36523;PMS5003;66329;46.796;9.824;2023-02-17T14:46:27;2;2;
36523;PMS5003;66329;46.796;9.824;2023-02-17T14:48:54;2;2;
36523;PMS5003;66329;46.796;9.824;2023-02-17T14:51:22;1;1;
36523;PMS5003;66329;46.796;9.824;2023-02-17T14:53:51;1;1;
36523;PMS5003;66329;46.796;9.824;2023-02-17T14:56:20;2;2;
36523;PMS5003;66329;46.796;9.824;2023-02-17T14:58:50;2;2;
36523;PMS5003;66329;46.796;9.824;2023-02-17T15:01:19;3;2;
36523;PMS5003;66329;46.796;9.824;2023-02-17T15:03:47;2;2;
36523;PMS5003;66329;46.796;9.824;2023-02-17T15:06:16;1;1;
36523;PMS5003;66329;46.796;9.824;2023-02-17T15:08:45;2;2;
36523;PMS5003;66329;46.796;9.824;2023-02-17T15:11:15;3;1;
36523;PMS5003;66329;46.796;9.824;2023-02-17T15:13:45;3;2;
36523;PMS5003;66329;46.796;9.824;2023-02-17T15:16:12;2;2;
36523;PMS5003;66329;46.796;9.824;2023-02-17T15:18:39;2;1;
36523;PMS5003;66329;46.796;9.824;2023-02-17T15:21:14;1;1;
36523;PMS5003;66329;46.796;9.824;2023-02-17T15:23:48;1;1;
36523;PMS5003;66329;46.796;9.824;2023-02-17T15:26:16;1;1;
36523;PMS5003;66329;46.796;9.824;2023-02-17T15:28:43;2;2;
36523;PMS5003;66329;46.796;9.824;2023-02-17T15:31:10;2;2;
36523;PMS5003;66329;46.796;9.824;2023-02-17T15:33:38;3;3;
36523;PMS5003;66329;46.796;9.824;2023-02-17T15:36:06;4;4;
36523;PMS5003;66329;46.796;9.824;2023-02-17T15:38:36;4;4;
36523;PMS5003;66329;46.796;9.824;2023-02-17T15:41:04;3;3;
36523;PMS5003;66329;46.796;9.824;2023-02-17T15:43:36;5;5;
36523;PMS5003;66329;46.796;9.824;2023-02-17T15:46:08;6;5;
36523;PMS5003;66329;46.796;9.824;2023-02-17T15:48:38;3;3;
36523;PMS5003;66329;46.796;9.824;2023-02-17T15:51:05;7;4;
36523;PMS5003;66329;46.796;9.824;2023-02-17T15:53:34;9;9;
36523;PMS5003;66329;46.796;9.824;2023-02-17T15:56:02;7;5;
36523;PMS5003;66329;46.796;9.824;2023-02-17T15:58:30;6;4;
36523;PMS5003;66329;46.796;9.824;2023-02-17T16:00:58;4;4;
36523;PMS5003;66329;46.796;9.824;2023-02-17T16:03:26;9;6;
36523;PMS5003;66329;46.796;9.824;2023-02-17T16:05:53;4;4;
36523;PMS5003;66329;46.796;9.824;2023-02-17T16:08:21;9;7;
36523;PMS5003;66329;46.796;9.824;2023-02-17T16:10:48;5;5;
36523;PMS5003;66329;46.796;9.824;2023-02-17T16:13:15;5;5;
36523;PMS5003;66329;46.796;9.824;2023-02-17T16:15:43;5;5;
36523;PMS5003;66329;46.796;9.824;2023-02-17T16:18:14;5;4;
36523;PMS5003;66329;46.796;9.824;2023-02-17T16:20:46;6;3;
36523;PMS5003;66329;46.796;9.824;2023-02-17T16:23:13;6;4;
36523;PMS5003;66329;46.796;9.824;2023-02-17T16:25:40;3;3;
36523;PMS5003;66329;46.796;9.824;2023-02-17T16:28:09;3;3;
36523;PMS5003;66329;46.796;9.824;2023-02-17T16:30:41;4;2;
36523;PMS5003;66329;46.796;9.824;2023-02-17T16:33:08;2;2;
36523;PMS5003;66329;46.796;9.824;2023-02-17T16:35:36;4;3;
36523;PMS5003;66329;46.796;9.824;2023-02-17T16:38:04;3;3;
36523;PMS5003;66329;46.796;9.824;2023-02-17T16:40:36;5;2;
36523;PMS5003;66329;46.796;9.824;2023-02-17T16:43:08;3;3;
36523;PMS5003;66329;46.796;9.824;2023-02-17T16:45:37;3;3;
36523;PMS5003;66329;46.796;9.824;2023-02-17T16:48:14;1;1;
36523;PMS5003;66329;46.796;9.824;2023-02-17T16:50:42;3;3;
36523;PMS5003;66329;46.796;9.824;2023-02-17T16:53:10;2;2;
36523;PMS5003;66329;46.796;9.824;2023-02-17T16:55:38;5;5;
36523;PMS5003;66329;46.796;9.824;2023-02-17T16:58:10;2;2;
36523;PMS5003;66329;46.796;9.824;2023-02-17T17:00:41;2;2;
36523;PMS5003;66329;46.796;9.824;2023-02-17T17:03:09;2;2;
36523;PMS5003;66329;46.796;9.824;2023-02-17T17:05:36;3;3;
36523;PMS5003;66329;46.796;9.824;2023-02-17T17:08:03;1;1;
36523;PMS5003;66329;46.796;9.824;2023-02-17T17:10:32;2;2;